sensor_id;sensor_type;location;lat;lon;timestamp;pressure;altitude;pressure_sealevel;temperature;humidity
67430;BME280;54298;52.076;5.264;2023-02-28T00:01:11;103121.0;;;0.79;80.58
67430;BME280;54298;52.076;5.264;2023-02-28T00:02:47;103117.0;;;0.73;81.16
67430;BME280;54298;52.076;5.264;2023-02-28T00:04:24;103113.00000000001;;;0.72;81.41
67430;BME280;54298;52.076;5.264;2023-02-28T00:06:01;103111.99999999999;;;0.78;81.44
67430;BME280;54298;52.076;5.264;2023-02-28T00:09:14;103107.0;;;0.76;81.36
67430;BME280;54298;52.076;5.264;2023-02-28T00:10:50;103111.99999999999;;;0.68;81.72
67430;BME280;54298;52.076;5.264;2023-02-28T00:12:27;103114.00000000001;;;0.72;81.8
67430;BME280;54298;52.076;5.264;2023-02-28T00:15:39;103109.99999999999;;;0.74;82.07
67430;BME280;54298;52.076;5.264;2023-02-28T00:17:15;103117.0;;;0.84;81.72
67430;BME280;54298;52.076;5.264;2023-02-28T00:18:51;103122.0;;;0.95;81.44
67430;BME280;54298;52.076;5.264;2023-02-28T00:22:03;103124.0;;;1.14;80.97
67430;BME280;54298;52.076;5.264;2023-02-28T00:23:39;103122.0;;;1.07;81.11
67430;BME280;54298;52.076;5.264;2023-02-28T00:25:17;103126.0;;;1.16;81.11
67430;BME280;54298;52.076;5.264;2023-02-28T00:26:55;103126.0;;;1.1;81.08
67430;BME280;54298;52.076;5.264;2023-02-28T00:30:10;103122.0;;;1.04;81.38
67430;BME280;54298;52.076;5.264;2023-02-28T00:31:51;103121.0;;;1.07;81.48
67430;BME280;54298;52.076;5.264;2023-02-28T00:33:27;103117.0;;;1.11;81.66
67430;BME280;54298;52.076;5.264;2023-02-28T00:36:42;103114.00000000001;;;1.16;81.58
67430;BME280;54298;52.076;5.264;2023-02-28T00:38:20;103123.0;;;1.24;81.47
67430;BME280;54298;52.076;5.264;2023-02-28T00:39:56;103120.0;;;1.33;80.91
67430;BME280;54298;52.076;5.264;2023-02-28T00:41:32;103119.0;;;1.37;80.72
67430;BME280;54298;52.076;5.264;2023-02-28T00:44:44;103120.0;;;1.34;80.86
67430;BME280;54298;52.076;5.264;2023-02-28T00:46:20;103120.0;;;1.43;80.74
67430;BME280;54298;52.076;5.264;2023-02-28T00:47:57;103120.0;;;1.53;80.45
67430;BME280;54298;52.076;5.264;2023-02-28T00:51:09;103119.0;;;1.51;80.61
67430;BME280;54298;52.076;5.264;2023-02-28T00:52:45;103114.00000000001;;;1.47;80.92
67430;BME280;54298;52.076;5.264;2023-02-28T00:54:22;103107.0;;;1.5;81.09
67430;BME280;54298;52.076;5.264;2023-02-28T00:57:36;103109.99999999999;;;1.58;81.08
67430;BME280;54298;52.076;5.264;2023-02-28T00:59:12;103113.00000000001;;;1.56;81.23
67430;BME280;54298;52.076;5.264;2023-02-28T01:00:49;103113.00000000001;;;1.57;81.08
67430;BME280;54298;52.076;5.264;2023-02-28T01:02:26;103108.99999999999;;;1.63;81.02
67430;BME280;54298;52.076;5.264;2023-02-28T01:05:38;103108.0;;;1.65;80.92
67430;BME280;54298;52.076;5.264;2023-02-28T01:07:14;103107.0;;;1.72;80.87
67430;BME280;54298;52.076;5.264;2023-02-28T01:08:50;103109.99999999999;;;1.84;80.63
67430;BME280;54298;52.076;5.264;2023-02-28T01:12:04;103109.99999999999;;;1.91;80.42
67430;BME280;54298;52.076;5.264;2023-02-28T01:13:40;103108.99999999999;;;1.93;80.02
67430;BME280;54298;52.076;5.264;2023-02-28T01:15:17;103114.00000000001;;;2.0;79.66
67430;BME280;54298;52.076;5.264;2023-02-28T01:18:29;103115.00000000001;;;1.91;79.83
67430;BME280;54298;52.076;5.264;2023-02-28T01:20:06;103116.00000000001;;;2.02;79.66
67430;BME280;54298;52.076;5.264;2023-02-28T01:21:42;103111.99999999999;;;2.0;79.83
67430;BME280;54298;52.076;5.264;2023-02-28T01:23:19;103107.0;;;2.0;80.08
67430;BME280;54298;52.076;5.264;2023-02-28T01:26:32;103114.00000000001;;;2.08;79.91
67430;BME280;54298;52.076;5.264;2023-02-28T01:28:08;103109.99999999999;;;2.05;79.64
67430;BME280;54298;52.076;5.264;2023-02-28T01:29:44;103108.99999999999;;;2.08;79.52
67430;BME280;54298;52.076;5.264;2023-02-28T01:32:59;103108.99999999999;;;2.09;79.59
67430;BME280;54298;52.076;5.264;2023-02-28T01:34:36;103108.99999999999;;;2.12;79.44
67430;BME280;54298;52.076;5.264;2023-02-28T01:36:13;103108.99999999999;;;2.13;79.45
67430;BME280;54298;52.076;5.264;2023-02-28T01:39:27;103108.0;;;2.08;79.72
67430;BME280;54298;52.076;5.264;2023-02-28T01:41:04;103102.0;;;2.04;80.09
67430;BME280;54298;52.076;5.264;2023-02-28T01:42:40;103100.0;;;2.09;80.36
67430;BME280;54298;52.076;5.264;2023-02-28T01:45:25;103105.0;;;2.11;80.55
67430;BME280;54298;52.076;5.264;2023-02-28T01:47:02;103106.0;;;2.27;80.23
67430;BME280;54298;52.076;5.264;2023-02-28T01:48:40;103101.0;;;2.23;80.36
67430;BME280;54298;52.076;5.264;2023-02-28T01:51:58;103100.0;;;2.31;80.16
67430;BME280;54298;52.076;5.264;2023-02-28T01:53:36;103094.0;;;2.25;80.52
67430;BME280;54298;52.076;5.264;2023-02-28T01:55:19;103095.0;;;2.27;80.42
67430;BME280;54298;52.076;5.264;2023-02-28T01:57:00;103090.00000000001;;;2.27;80.61
67430;BME280;54298;52.076;5.264;2023-02-28T02:00:20;103084.99999999999;;;2.31;80.16
67430;BME280;54298;52.076;5.264;2023-02-28T02:01:59;103091.00000000001;;;2.38;80.22
67430;BME280;54298;52.076;5.264;2023-02-28T02:03:36;103083.0;;;2.35;80.2
67430;BME280;54298;52.076;5.264;2023-02-28T02:05:15;103090.00000000001;;;2.34;80.44
67430;BME280;54298;52.076;5.264;2023-02-28T02:08:30;103078.0;;;2.44;80.02
67430;BME280;54298;52.076;5.264;2023-02-28T02:10:13;103078.0;;;2.39;80.24
67430;BME280;54298;52.076;5.264;2023-02-28T02:11:51;103066.00000000001;;;2.44;80.17
67430;BME280;54298;52.076;5.264;2023-02-28T02:15:33;103070.0;;;2.54;79.89
67430;BME280;54298;52.076;5.264;2023-02-28T02:17:20;103066.00000000001;;;2.46;80.19
67430;BME280;54298;52.076;5.264;2023-02-28T02:19:15;103070.0;;;2.46;80.38
67430;BME280;54298;52.076;5.264;2023-02-28T02:21:28;103064.00000000001;;;2.5;80.22
67430;BME280;54298;52.076;5.264;2023-02-28T02:24:51;103059.99999999999;;;2.46;80.16
67430;BME280;54298;52.076;5.264;2023-02-28T02:27:17;103070.0;;;2.5;80.06
67430;BME280;54298;52.076;5.264;2023-02-28T02:30:00;103069.0;;;2.64;79.91
67430;BME280;54298;52.076;5.264;2023-02-28T02:33:19;103073.0;;;2.66;79.77
67430;BME280;54298;52.076;5.264;2023-02-28T02:35:30;103077.0;;;2.69;79.33
67430;BME280;54298;52.076;5.264;2023-02-28T02:37:15;103078.0;;;2.66;79.27
67430;BME280;54298;52.076;5.264;2023-02-28T02:39:02;103075.0;;;2.71;78.99
67430;BME280;54298;52.076;5.264;2023-02-28T02:42:36;103083.99999999999;;;2.7;79.3
67430;BME280;54298;52.076;5.264;2023-02-28T02:44:19;103075.0;;;2.97;78.52
67430;BME280;54298;52.076;5.264;2023-02-28T02:46:01;103082.0;;;2.86;78.8
67430;BME280;54298;52.076;5.264;2023-02-28T02:47:41;103079.0;;;2.83;78.7
67430;BME280;54298;52.076;5.264;2023-02-28T02:49:21;103078.0;;;2.86;79.02
67430;BME280;54298;52.076;5.264;2023-02-28T02:52:44;103076.0;;;2.85;78.89
67430;BME280;54298;52.076;5.264;2023-02-28T02:54:35;103073.0;;;2.91;78.77
67430;BME280;54298;52.076;5.264;2023-02-28T02:56:13;103079.0;;;2.87;78.81
67430;BME280;54298;52.076;5.264;2023-02-28T02:57:54;103077.0;;;2.93;78.45
67430;BME280;54298;52.076;5.264;2023-02-28T02:59:34;103078.0;;;2.92;78.56
67430;BME280;54298;52.076;5.264;2023-02-28T03:02:56;103079.0;;;2.89;78.59
67430;BME280;54298;52.076;5.264;2023-02-28T03:04:36;103081.0;;;2.87;78.81
67430;BME280;54298;52.076;5.264;2023-02-28T03:06:18;103075.0;;;2.84;78.88
67430;BME280;54298;52.076;5.264;2023-02-28T03:09:33;103080.0;;;2.85;78.97
67430;BME280;54298;52.076;5.264;2023-02-28T03:11:13;103083.99999999999;;;2.86;79.08
67430;BME280;54298;52.076;5.264;2023-02-28T03:13:00;103086.99999999999;;;2.85;79.3
67430;BME280;54298;52.076;5.264;2023-02-28T03:14:50;103080.0;;;2.88;79.27
67430;BME280;54298;52.076;5.264;2023-02-28T03:16:35;103077.0;;;2.89;79.58
67430;BME280;54298;52.076;5.264;2023-02-28T03:20:09;103084.99999999999;;;2.9;79.64
67430;BME280;54298;52.076;5.264;2023-02-28T03:21:58;103081.0;;;3.16;78.8
67430;BME280;54298;52.076;5.264;2023-02-28T03:23:45;103081.0;;;3.09;78.14
67430;BME280;54298;52.076;5.264;2023-02-28T03:25:32;103076.0;;;3.05;78.42
67430;BME280;54298;52.076;5.264;2023-02-28T03:27:16;103076.0;;;3.0;78.56
67430;BME280;54298;52.076;5.264;2023-02-28T03:29:03;103073.0;;;3.02;78.8
67430;BME280;54298;52.076;5.264;2023-02-28T03:32:27;103080.0;;;3.02;78.84
67430;BME280;54298;52.076;5.264;2023-02-28T03:34:13;103083.0;;;2.93;79.27
67430;BME280;54298;52.076;5.264;2023-02-28T03:35:56;103076.0;;;2.96;79.11
67430;BME280;54298;52.076;5.264;2023-02-28T03:37:38;103081.0;;;2.94;78.99
67430;BME280;54298;52.076;5.264;2023-02-28T03:41:01;103083.99999999999;;;3.05;78.7
67430;BME280;54298;52.076;5.264;2023-02-28T03:42:43;103081.0;;;3.14;78.38
67430;BME280;54298;52.076;5.264;2023-02-28T03:44:24;103080.0;;;3.0;78.91
67430;BME280;54298;52.076;5.264;2023-02-28T03:46:09;103082.0;;;3.01;79.19
67430;BME280;54298;52.076;5.264;2023-02-28T03:47:50;103082.0;;;3.04;78.99
67430;BME280;54298;52.076;5.264;2023-02-28T03:51:15;103083.99999999999;;;3.07;78.86
67430;BME280;54298;52.076;5.264;2023-02-28T03:52:55;103083.99999999999;;;3.0;79.3
67430;BME280;54298;52.076;5.264;2023-02-28T03:54:41;103090.00000000001;;;3.16;78.87
67430;BME280;54298;52.076;5.264;2023-02-28T03:56:23;103091.00000000001;;;3.18;78.52
67430;BME280;54298;52.076;5.264;2023-02-28T03:59:56;103092.0;;;3.26;78.22
67430;BME280;54298;52.076;5.264;2023-02-28T04:01:38;103092.0;;;3.34;77.83
67430;BME280;54298;52.076;5.264;2023-02-28T04:03:16;103095.0;;;3.44;77.5
67430;BME280;54298;52.076;5.264;2023-02-28T04:04:52;103093.0;;;3.46;76.97
67430;BME280;54298;52.076;5.264;2023-02-28T04:06:30;103094.0;;;3.47;76.75
67430;BME280;54298;52.076;5.264;2023-02-28T04:09:44;103097.0;;;3.42;76.94
67430;BME280;54298;52.076;5.264;2023-02-28T04:11:23;103093.0;;;3.3;77.34
67430;BME280;54298;52.076;5.264;2023-02-28T04:13:02;103094.0;;;3.38;77.47
67430;BME280;54298;52.076;5.264;2023-02-28T04:16:15;103097.0;;;3.31;77.74
67430;BME280;54298;52.076;5.264;2023-02-28T04:17:51;103093.0;;;3.19;78.06
67430;BME280;54298;52.076;5.264;2023-02-28T04:19:28;103101.0;;;3.07;78.66
67430;BME280;54298;52.076;5.264;2023-02-28T04:22:41;103104.0;;;3.1;78.86
67430;BME280;54298;52.076;5.264;2023-02-28T04:24:20;103104.0;;;3.01;79.08
67430;BME280;54298;52.076;5.264;2023-02-28T04:25:56;103101.0;;;2.97;79.41
67430;BME280;54298;52.076;5.264;2023-02-28T04:27:32;103097.0;;;3.03;79.63
67430;BME280;54298;52.076;5.264;2023-02-28T04:30:54;103100.0;;;3.1;79.64
67430;BME280;54298;52.076;5.264;2023-02-28T04:32:31;103104.0;;;3.2;78.83
67430;BME280;54298;52.076;5.264;2023-02-28T04:34:07;103103.0;;;3.32;77.77
67430;BME280;54298;52.076;5.264;2023-02-28T04:37:19;103100.0;;;3.42;76.22
67430;BME280;54298;52.076;5.264;2023-02-28T04:38:56;103107.0;;;3.39;75.11
67430;BME280;54298;52.076;5.264;2023-02-28T04:40:32;103104.0;;;3.33;74.31
67430;BME280;54298;52.076;5.264;2023-02-28T04:42:09;103108.99999999999;;;3.51;73.72
67430;BME280;54298;52.076;5.264;2023-02-28T04:45:22;103114.00000000001;;;3.52;72.8
67430;BME280;54298;52.076;5.264;2023-02-28T04:46:58;103116.00000000001;;;3.49;72.42
67430;BME280;54298;52.076;5.264;2023-02-28T04:48:36;103114.00000000001;;;3.55;71.5
67430;BME280;54298;52.076;5.264;2023-02-28T04:51:50;103111.99999999999;;;3.53;70.62
67430;BME280;54298;52.076;5.264;2023-02-28T04:53:27;103116.00000000001;;;3.66;69.84
67430;BME280;54298;52.076;5.264;2023-02-28T04:55:05;103108.0;;;3.59;69.98
67430;BME280;54298;52.076;5.264;2023-02-28T04:56:41;103111.99999999999;;;3.53;70.06
67430;BME280;54298;52.076;5.264;2023-02-28T04:59:54;103115.00000000001;;;3.6;69.52
67430;BME280;54298;52.076;5.264;2023-02-28T05:01:32;103111.99999999999;;;3.5;69.75
67430;BME280;54298;52.076;5.264;2023-02-28T05:03:09;103101.0;;;3.56;69.48
67430;BME280;54298;52.076;5.264;2023-02-28T05:06:22;103108.99999999999;;;3.44;69.52
67430;BME280;54298;52.076;5.264;2023-02-28T05:07:59;103109.99999999999;;;3.49;69.44
67430;BME280;54298;52.076;5.264;2023-02-28T05:09:35;103108.99999999999;;;3.4;69.41
67430;BME280;54298;52.076;5.264;2023-02-28T05:12:52;103111.99999999999;;;3.43;69.34
67430;BME280;54298;52.076;5.264;2023-02-28T05:14:29;103102.0;;;3.41;69.08
67430;BME280;54298;52.076;5.264;2023-02-28T05:16:05;103108.0;;;3.49;68.88
67430;BME280;54298;52.076;5.264;2023-02-28T05:17:42;103105.0;;;3.45;68.89
67430;BME280;54298;52.076;5.264;2023-02-28T05:20:55;103102.0;;;3.43;68.52
67430;BME280;54298;52.076;5.264;2023-02-28T05:22:31;103104.0;;;3.39;69.05
67430;BME280;54298;52.076;5.264;2023-02-28T05:24:11;103114.00000000001;;;3.43;69.19
67430;BME280;54298;52.076;5.264;2023-02-28T05:27:24;103117.0;;;3.44;69.62
67430;BME280;54298;52.076;5.264;2023-02-28T05:29:00;103117.0;;;3.44;70.42
67430;BME280;54298;52.076;5.264;2023-02-28T05:30:36;103117.0;;;3.26;71.08
67430;BME280;54298;52.076;5.264;2023-02-28T05:33:49;103119.0;;;3.33;71.62
67430;BME280;54298;52.076;5.264;2023-02-28T05:35:26;103124.0;;;3.4;71.83
67430;BME280;54298;52.076;5.264;2023-02-28T05:37:03;103117.0;;;3.33;72.31
67430;BME280;54298;52.076;5.264;2023-02-28T05:38:38;103120.0;;;3.28;73.08
67430;BME280;54298;52.076;5.264;2023-02-28T05:41:52;103119.0;;;3.29;73.36
67430;BME280;54298;52.076;5.264;2023-02-28T05:43:28;103121.0;;;3.13;74.52
67430;BME280;54298;52.076;5.264;2023-02-28T05:45:05;103121.0;;;2.93;75.63
67430;BME280;54298;52.076;5.264;2023-02-28T05:48:17;103117.0;;;2.77;76.73
67430;BME280;54298;52.076;5.264;2023-02-28T05:49:53;103122.0;;;2.75;77.34
67430;BME280;54298;52.076;5.264;2023-02-28T05:51:30;103121.0;;;2.8;77.06
67430;BME280;54298;52.076;5.264;2023-02-28T05:56:18;103116.00000000001;;;2.76;76.58
67430;BME280;54298;52.076;5.264;2023-02-28T05:57:54;103113.00000000001;;;2.77;76.72
67430;BME280;54298;52.076;5.264;2023-02-28T05:59:30;103127.0;;;2.66;77.22
67430;BME280;54298;52.076;5.264;2023-02-28T06:03:09;103123.0;;;2.75;76.95
67430;BME280;54298;52.076;5.264;2023-02-28T06:04:45;103121.0;;;2.6;78.12
67430;BME280;54298;52.076;5.264;2023-02-28T06:06:22;103128.0;;;2.62;78.02
67430;BME280;54298;52.076;5.264;2023-02-28T06:07:58;103127.0;;;2.52;78.44
67430;BME280;54298;52.076;5.264;2023-02-28T06:11:11;103125.0;;;2.48;78.63
67430;BME280;54298;52.076;5.264;2023-02-28T06:12:48;103126.0;;;2.48;78.8
67430;BME280;54298;52.076;5.264;2023-02-28T06:14:25;103123.0;;;2.54;78.59
67430;BME280;54298;52.076;5.264;2023-02-28T06:17:37;103122.0;;;2.52;78.94
67430;BME280;54298;52.076;5.264;2023-02-28T06:19:13;103118.0;;;2.44;79.24
67430;BME280;54298;52.076;5.264;2023-02-28T06:20:52;103113.00000000001;;;2.31;80.06
67430;BME280;54298;52.076;5.264;2023-02-28T06:22:28;103117.0;;;2.27;80.44
67430;BME280;54298;52.076;5.264;2023-02-28T06:25:44;103116.00000000001;;;2.23;81.0
67430;BME280;54298;52.076;5.264;2023-02-28T06:27:21;103117.0;;;2.36;80.52
67430;BME280;54298;52.076;5.264;2023-02-28T06:28:57;103122.0;;;2.27;81.08
67430;BME280;54298;52.076;5.264;2023-02-28T06:32:09;103113.00000000001;;;2.17;81.36
67430;BME280;54298;52.076;5.264;2023-02-28T06:33:45;103107.0;;;2.04;82.17
67430;BME280;54298;52.076;5.264;2023-02-28T06:35:22;103111.99999999999;;;2.0;82.79
67430;BME280;54298;52.076;5.264;2023-02-28T06:38:36;103118.0;;;1.98;83.11
67430;BME280;54298;52.076;5.264;2023-02-28T06:40:14;103117.0;;;1.98;83.33
67430;BME280;54298;52.076;5.264;2023-02-28T06:41:51;103117.0;;;2.0;83.14
67430;BME280;54298;52.076;5.264;2023-02-28T06:43:28;103116.00000000001;;;2.09;82.42
67430;BME280;54298;52.076;5.264;2023-02-28T06:46:44;103114.00000000001;;;2.19;82.43
67430;BME280;54298;52.076;5.264;2023-02-28T06:48:20;103116.00000000001;;;2.19;82.68
67430;BME280;54298;52.076;5.264;2023-02-28T06:49:56;103117.0;;;2.38;82.02
67430;BME280;54298;52.076;5.264;2023-02-28T06:53:09;103119.0;;;2.27;82.13
67430;BME280;54298;52.076;5.264;2023-02-28T06:54:45;103125.0;;;2.33;81.84
67430;BME280;54298;52.076;5.264;2023-02-28T06:56:21;103124.0;;;2.27;82.15
67430;BME280;54298;52.076;5.264;2023-02-28T06:59:35;103126.0;;;2.34;82.15
67430;BME280;54298;52.076;5.264;2023-02-28T07:01:11;103118.0;;;2.19;82.52
67430;BME280;54298;52.076;5.264;2023-02-28T07:02:49;103113.00000000001;;;2.27;82.51
67430;BME280;54298;52.076;5.264;2023-02-28T07:04:25;103121.0;;;2.31;82.66
67430;BME280;54298;52.076;5.264;2023-02-28T07:07:38;103125.0;;;2.46;82.17
67430;BME280;54298;52.076;5.264;2023-02-28T07:09:15;103124.0;;;2.32;82.65
67430;BME280;54298;52.076;5.264;2023-02-28T07:10:52;103123.0;;;2.25;83.07
67430;BME280;54298;52.076;5.264;2023-02-28T07:14:05;103116.00000000001;;;2.31;83.01
67430;BME280;54298;52.076;5.264;2023-02-28T07:15:41;103125.0;;;2.38;82.68
67430;BME280;54298;52.076;5.264;2023-02-28T07:17:17;103138.00000000001;;;2.27;82.64
67430;BME280;54298;52.076;5.264;2023-02-28T07:20:31;103140.00000000001;;;2.44;82.35
67430;BME280;54298;52.076;5.264;2023-02-28T07:22:07;103132.0;;;2.54;82.25
67430;BME280;54298;52.076;5.264;2023-02-28T07:23:44;103133.99999999999;;;2.37;82.71
67430;BME280;54298;52.076;5.264;2023-02-28T07:25:20;103132.0;;;2.38;82.85
67430;BME280;54298;52.076;5.264;2023-02-28T07:28:33;103130.0;;;2.37;83.01
67430;BME280;54298;52.076;5.264;2023-02-28T07:30:10;103125.0;;;2.35;83.17
67430;BME280;54298;52.076;5.264;2023-02-28T07:31:46;103127.0;;;2.31;83.2
67430;BME280;54298;52.076;5.264;2023-02-28T07:34:59;103134.99999999999;;;2.52;82.64
67430;BME280;54298;52.076;5.264;2023-02-28T07:36:35;103133.0;;;2.5;82.68
67430;BME280;54298;52.076;5.264;2023-02-28T07:38:11;103134.99999999999;;;2.52;82.65
67430;BME280;54298;52.076;5.264;2023-02-28T07:41:23;103136.99999999999;;;2.5;83.01
67430;BME280;54298;52.076;5.264;2023-02-28T07:43:00;103131.0;;;2.52;82.79
67430;BME280;54298;52.076;5.264;2023-02-28T07:44:36;103133.0;;;2.42;83.22
67430;BME280;54298;52.076;5.264;2023-02-28T07:46:15;103133.99999999999;;;2.5;82.97
67430;BME280;54298;52.076;5.264;2023-02-28T07:49:29;103140.00000000001;;;2.48;83.4
67430;BME280;54298;52.076;5.264;2023-02-28T07:51:05;103139.00000000001;;;2.63;83.06
67430;BME280;54298;52.076;5.264;2023-02-28T07:52:41;103134.99999999999;;;2.69;82.88
67430;BME280;54298;52.076;5.264;2023-02-28T07:55:55;103142.0;;;2.79;82.15
67430;BME280;54298;52.076;5.264;2023-02-28T07:57:31;103144.0;;;2.56;82.31
67430;BME280;54298;52.076;5.264;2023-02-28T07:59:07;103148.0;;;2.92;81.63
67430;BME280;54298;52.076;5.264;2023-02-28T08:02:20;103148.0;;;2.73;81.84
67430;BME280;54298;52.076;5.264;2023-02-28T08:03:56;103145.0;;;2.72;82.42
67430;BME280;54298;52.076;5.264;2023-02-28T08:05:32;103151.0;;;2.87;82.14
67430;BME280;54298;52.076;5.264;2023-02-28T08:07:08;103150.0;;;2.96;81.91
67430;BME280;54298;52.076;5.264;2023-02-28T08:10:20;103146.0;;;3.0;81.67
67430;BME280;54298;52.076;5.264;2023-02-28T08:11:57;103140.00000000001;;;3.03;81.77
67430;BME280;54298;52.076;5.264;2023-02-28T08:13:33;103143.0;;;3.08;81.55
67430;BME280;54298;52.076;5.264;2023-02-28T08:16:46;103155.0;;;3.07;81.27
67430;BME280;54298;52.076;5.264;2023-02-28T08:18:23;103164.00000000001;;;3.13;81.25
67430;BME280;54298;52.076;5.264;2023-02-28T08:19:59;103164.00000000001;;;3.16;81.05
67430;BME280;54298;52.076;5.264;2023-02-28T08:23:12;103163.00000000001;;;3.26;80.8
67430;BME280;54298;52.076;5.264;2023-02-28T08:24:49;103158.99999999999;;;3.28;80.97
67430;BME280;54298;52.076;5.264;2023-02-28T08:26:25;103165.00000000001;;;3.4;80.58
67430;BME280;54298;52.076;5.264;2023-02-28T08:28:02;103163.00000000001;;;3.45;80.3
67430;BME280;54298;52.076;5.264;2023-02-28T08:31:16;103168.0;;;3.34;79.75
67430;BME280;54298;52.076;5.264;2023-02-28T08:32:53;103166.00000000001;;;3.47;79.23
67430;BME280;54298;52.076;5.264;2023-02-28T08:34:29;103158.0;;;3.54;78.95
67430;BME280;54298;52.076;5.264;2023-02-28T08:39:19;103154.0;;;3.55;78.37
67430;BME280;54298;52.076;5.264;2023-02-28T08:40:57;103165.00000000001;;;3.55;78.33
67430;BME280;54298;52.076;5.264;2023-02-28T08:44:12;103157.0;;;3.64;77.95
67430;BME280;54298;52.076;5.264;2023-02-28T08:45:51;103158.99999999999;;;3.69;77.73
67430;BME280;54298;52.076;5.264;2023-02-28T08:47:27;103159.99999999999;;;3.85;77.14
67430;BME280;54298;52.076;5.264;2023-02-28T08:49:03;103158.99999999999;;;3.98;75.94
67430;BME280;54298;52.076;5.264;2023-02-28T08:52:16;103159.99999999999;;;3.99;74.84
67430;BME280;54298;52.076;5.264;2023-02-28T08:53:53;103163.00000000001;;;3.91;73.64
67430;BME280;54298;52.076;5.264;2023-02-28T08:55:30;103158.99999999999;;;4.03;72.91
67430;BME280;54298;52.076;5.264;2023-02-28T08:58:44;103157.0;;;4.05;72.99
67430;BME280;54298;52.076;5.264;2023-02-28T09:00:21;103158.99999999999;;;4.07;72.22
67430;BME280;54298;52.076;5.264;2023-02-28T09:01:57;103153.0;;;4.1;71.44
67430;BME280;54298;52.076;5.264;2023-02-28T09:03:34;103153.0;;;4.07;71.88
67430;BME280;54298;52.076;5.264;2023-02-28T09:06:46;103155.0;;;4.09;71.03
67430;BME280;54298;52.076;5.264;2023-02-28T09:08:22;103156.0;;;4.22;69.64
67430;BME280;54298;52.076;5.264;2023-02-28T09:09:59;103161.99999999999;;;4.2;69.31
67430;BME280;54298;52.076;5.264;2023-02-28T09:13:12;103164.00000000001;;;4.18;68.86
67430;BME280;54298;52.076;5.264;2023-02-28T09:14:49;103167.0;;;4.22;67.85
67430;BME280;54298;52.076;5.264;2023-02-28T09:16:25;103170.0;;;4.24;67.81
67430;BME280;54298;52.076;5.264;2023-02-28T09:19:37;103165.00000000001;;;4.24;67.3
67430;BME280;54298;52.076;5.264;2023-02-28T09:21:14;103158.99999999999;;;4.24;65.72
67430;BME280;54298;52.076;5.264;2023-02-28T09:22:52;103158.0;;;4.24;66.39
67430;BME280;54298;52.076;5.264;2023-02-28T09:24:28;103156.0;;;4.25;65.19
67430;BME280;54298;52.076;5.264;2023-02-28T09:27:42;103158.0;;;4.21;62.57
67430;BME280;54298;52.076;5.264;2023-02-28T09:29:18;103165.00000000001;;;4.16;61.4
67430;BME280;54298;52.076;5.264;2023-02-28T09:30:54;103161.99999999999;;;4.51;62.24
67430;BME280;54298;52.076;5.264;2023-02-28T09:34:07;103156.0;;;4.62;61.48
67430;BME280;54298;52.076;5.264;2023-02-28T09:35:43;103155.0;;;4.7;60.31
67430;BME280;54298;52.076;5.264;2023-02-28T09:37:19;103157.0;;;4.82;59.91
67430;BME280;54298;52.076;5.264;2023-02-28T09:40:36;103157.0;;;4.99;60.55
67430;BME280;54298;52.076;5.264;2023-02-28T09:42:20;103155.0;;;5.03;58.48
67430;BME280;54298;52.076;5.264;2023-02-28T09:44:07;103164.00000000001;;;5.16;57.58
67430;BME280;54298;52.076;5.264;2023-02-28T09:45:52;103158.99999999999;;;5.26;58.31
67430;BME280;54298;52.076;5.264;2023-02-28T09:47:33;103167.0;;;5.23;57.42
67430;BME280;54298;52.076;5.264;2023-02-28T09:50:55;103167.0;;;5.21;56.35
67430;BME280;54298;52.076;5.264;2023-02-28T09:52:36;103167.0;;;5.19;53.58
67430;BME280;54298;52.076;5.264;2023-02-28T09:54:15;103165.00000000001;;;5.29;51.49
67430;BME280;54298;52.076;5.264;2023-02-28T09:55:55;103170.0;;;5.24;48.04
67430;BME280;54298;52.076;5.264;2023-02-28T09:59:26;103167.0;;;5.25;46.31
67430;BME280;54298;52.076;5.264;2023-02-28T10:01:21;103161.99999999999;;;5.33;46.37
67430;BME280;54298;52.076;5.264;2023-02-28T10:03:22;103161.99999999999;;;5.44;45.91
67430;BME280;54298;52.076;5.264;2023-02-28T10:05:05;103166.00000000001;;;5.25;43.9
67430;BME280;54298;52.076;5.264;2023-02-28T10:06:46;103172.0;;;5.56;44.66
67430;BME280;54298;52.076;5.264;2023-02-28T10:08:27;103170.0;;;5.29;43.77
67430;BME280;54298;52.076;5.264;2023-02-28T10:12:00;103168.0;;;5.52;43.66
67430;BME280;54298;52.076;5.264;2023-02-28T10:13:50;103161.99999999999;;;5.29;43.62
67430;BME280;54298;52.076;5.264;2023-02-28T10:15:29;103165.00000000001;;;5.59;44.32
67430;BME280;54298;52.076;5.264;2023-02-28T10:17:10;103158.0;;;5.78;44.9
67430;BME280;54298;52.076;5.264;2023-02-28T10:20:37;103156.0;;;5.74;43.37
67430;BME280;54298;52.076;5.264;2023-02-28T10:22:17;103147.0;;;5.94;42.63
67430;BME280;54298;52.076;5.264;2023-02-28T10:24:03;103148.0;;;6.02;42.28
67430;BME280;54298;52.076;5.264;2023-02-28T10:25:56;103145.0;;;6.17;42.84
67430;BME280;54298;52.076;5.264;2023-02-28T10:27:34;103144.0;;;6.21;42.31
67430;BME280;54298;52.076;5.264;2023-02-28T10:30:48;103140.00000000001;;;6.19;42.56
67430;BME280;54298;52.076;5.264;2023-02-28T10:32:27;103133.0;;;6.05;42.25
67430;BME280;54298;52.076;5.264;2023-02-28T10:34:07;103142.0;;;6.3;42.8
67430;BME280;54298;52.076;5.264;2023-02-28T10:35:48;103139.00000000001;;;6.32;42.66
67430;BME280;54298;52.076;5.264;2023-02-28T10:39:34;103140.00000000001;;;6.28;42.33
67430;BME280;54298;52.076;5.264;2023-02-28T10:41:12;103136.99999999999;;;6.38;41.33
67430;BME280;54298;52.076;5.264;2023-02-28T10:42:56;103139.00000000001;;;6.39;40.74
67430;BME280;54298;52.076;5.264;2023-02-28T10:44:34;103138.00000000001;;;6.31;40.76
67430;BME280;54298;52.076;5.264;2023-02-28T10:46:13;103142.0;;;6.36;40.85
67430;BME280;54298;52.076;5.264;2023-02-28T10:49:31;103142.0;;;6.47;41.49
67430;BME280;54298;52.076;5.264;2023-02-28T10:51:08;103142.0;;;6.3;41.77